Time;durP1;ratioP1;P1;durP2;ratioP2;P2;SDS_P1;SDS_P2;PMS_P1;PMS_P2;Temp;Humidity;BMP_temperature;BMP_pressure;BME280_temperature;BME280_humidity;BME280_pressure;Samples;Min_cycle;Max_cycle;Signal;HPM_P1;HPM_P2
2022/07/08 00:01:52;;;;;;;11.63;2.08;;;17.20;53.90;;;;;;4981913;28;20058;-49
2022/07/08 00:04:20;;;;;;;6.78;2.03;;;17.10;53.80;;;;;;4982400;28;20054;-55
2022/07/08 00:06:47;;;;;;;6.95;2.10;;;17.10;53.90;;;;;;4981595;28;20057;-55
2022/07/08 00:09:15;;;;;;;9.00;1.67;;;17.10;53.90;;;;;;4981199;28;20054;-52
2022/07/08 00:11:43;;;;;;;13.38;2.20;;;17.10;53.80;;;;;;4983061;28;20058;-55
2022/07/08 00:14:10;;;;;;;7.57;2.03;;;17.10;53.80;;;;;;4980656;28;20062;-52
2022/07/08 00:16:43;;;;;;;14.73;2.60;;;17.10;53.90;;;;;;4980148;28;20058;-52
2022/07/08 00:19:11;;;;;;;10.75;2.30;;;17.10;53.70;;;;;;4982013;28;20062;-48
2022/07/08 00:21:38;;;;;;;7.47;1.83;;;17.00;53.80;;;;;;4983298;28;20061;-54
2022/07/08 00:24:06;;;;;;;10.30;2.13;;;17.00;53.90;;;;;;4982173;28;20054;-53
2022/07/08 00:26:34;;;;;;;12.45;2.63;;;17.00;53.90;;;;;;4980141;28;20058;-52
2022/07/08 00:29:01;;;;;;;7.80;1.80;;;17.00;54.00;;;;;;4982190;28;20058;-50
2022/07/08 00:31:29;;;;;;;10.77;2.42;;;17.00;54.10;;;;;;4981140;28;20058;-50
2022/07/08 00:33:58;;;;;;;14.90;2.65;;;16.90;54.20;;;;;;4982078;28;20050;-54
2022/07/08 00:36:25;;;;;;;6.47;2.20;;;16.90;54.30;;;;;;4979290;28;20529;-48
2022/07/08 00:38:53;;;;;;;10.23;2.20;;;16.90;54.30;;;;;;4980858;28;20066;-48
2022/07/08 00:41:21;;;;;;;10.32;2.45;;;16.90;54.50;;;;;;4983205;28;20058;-48
2022/07/08 00:43:48;;;;;;;20.17;3.13;;;16.80;54.60;;;;;;4981435;28;20054;-50
2022/07/08 00:46:17;;;;;;;9.95;2.53;;;16.80;54.60;;;;;;4980294;28;20402;-56
2022/07/08 00:48:45;;;;;;;15.23;2.53;;;16.80;54.80;;;;;;4982286;28;20058;-52
2022/07/08 00:51:16;;;;;;;13.23;2.20;;;16.80;54.80;;;;;;4981601;28;20058;-52
2022/07/08 00:53:46;;;;;;;9.63;1.83;;;16.80;54.90;;;;;;4982382;28;20057;-47
2022/07/08 00:56:14;;;;;;;11.70;1.88;;;16.90;54.90;;;;;;4978366;28;20051;-51
2022/07/08 00:58:42;;;;;;;11.15;2.15;;;16.80;54.90;;;;;;4981013;28;20058;-48
2022/07/08 01:01:09;;;;;;;12.30;2.10;;;16.80;54.70;;;;;;4982540;28;20058;-50
2022/07/08 01:03:37;;;;;;;11.70;2.00;;;16.80;54.40;;;;;;4981598;28;20070;-49
2022/07/08 01:06:04;;;;;;;11.68;1.83;;;16.80;54.20;;;;;;4981366;28;20073;-52
2022/07/08 01:08:34;;;;;;;9.93;1.70;;;16.80;53.90;;;;;;4981646;28;20050;-55
2022/07/08 01:11:01;;;;;;;16.13;2.45;;;16.80;53.30;;;;;;4982971;28;20054;-50
2022/07/08 01:13:29;;;;;;;8.80;1.98;;;16.70;52.90;;;;;;4982119;28;20050;-49
2022/07/08 01:15:56;;;;;;;7.80;1.70;;;16.70;52.90;;;;;;4979287;28;20174;-52
2022/07/08 01:18:27;;;;;;;12.52;2.38;;;16.60;52.90;;;;;;4984513;28;20065;-53
2022/07/08 01:20:56;;;;;;;10.20;2.20;;;16.50;52.90;;;;;;4983656;28;20054;-50
2022/07/08 01:23:23;;;;;;;8.63;1.70;;;16.50;52.80;;;;;;4984435;28;20054;-57
2022/07/08 01:25:52;;;;;;;8.52;1.80;;;16.50;52.80;;;;;;4984512;28;20402;-51
2022/07/08 01:28:20;;;;;;;13.02;1.80;;;16.40;52.70;;;;;;4984416;28;20403;-53
2022/07/08 01:30:48;;;;;;;6.47;1.63;;;16.40;52.70;;;;;;4984118;28;20587;-50
2022/07/08 01:33:15;;;;;;;6.55;1.65;;;16.40;52.60;;;;;;4982659;28;20062;-50
2022/07/08 01:35:43;;;;;;;9.82;1.55;;;16.30;52.50;;;;;;4984360;28;20050;-57
2022/07/08 01:38:12;;;;;;;7.63;1.33;;;16.30;52.60;;;;;;4982573;28;20050;-52
2022/07/08 01:40:39;;;;;;;12.05;2.58;;;16.30;52.50;;;;;;4981655;28;20686;-53
2022/07/08 01:43:07;;;;;;;9.82;1.95;;;16.20;52.50;;;;;;4985048;28;20386;-53
2022/07/08 01:45:35;;;;;;;12.02;1.83;;;16.20;52.30;;;;;;4982894;28;20387;-52
2022/07/08 01:48:02;;;;;;;8.23;1.70;;;16.20;52.30;;;;;;4983099;28;20054;-48
2022/07/08 01:50:30;;;;;;;6.50;1.60;;;16.20;52.20;;;;;;4984963;28;20050;-47
2022/07/08 01:52:57;;;;;;;9.98;2.75;;;16.10;52.10;;;;;;4984976;28;20061;-48
2022/07/08 01:55:26;;;;;;;7.43;1.70;;;16.10;51.90;;;;;;4981775;28;20430;-52
2022/07/08 01:57:54;;;;;;;10.60;2.15;;;16.10;51.90;;;;;;4984653;28;20390;-49
2022/07/08 02:00:22;;;;;;;6.57;1.52;;;16.10;51.90;;;;;;4982080;28;20482;-52
2022/07/08 02:02:49;;;;;;;9.02;1.70;;;16.20;51.90;;;;;;4984745;28;20058;-51
2022/07/08 02:05:17;;;;;;;11.52;1.60;;;16.10;52.10;;;;;;4983871;28;20047;-50
2022/07/08 02:07:45;;;;;;;10.00;1.90;;;16.10;52.00;;;;;;4983733;28;20413;-51
2022/07/08 02:10:12;;;;;;;7.88;1.52;;;16.20;52.00;;;;;;4985667;28;20061;-54
2022/07/08 02:12:40;;;;;;;9.70;1.60;;;16.20;51.90;;;;;;4985026;28;20066;-51
2022/07/08 02:15:09;;;;;;;5.65;1.38;;;16.20;51.90;;;;;;4982686;28;20081;-57
2022/07/08 02:17:39;;;;;;;6.28;1.30;;;16.30;52.00;;;;;;4982137;28;20051;-51
2022/07/08 02:20:09;;;;;;;11.55;1.63;;;16.30;52.00;;;;;;4982721;28;20050;-54
2022/07/08 02:22:36;;;;;;;9.57;1.40;;;16.40;52.20;;;;;;4984811;28;20058;-53
2022/07/08 02:25:05;;;;;;;8.40;1.92;;;16.40;52.30;;;;;;4984933;28;20513;-50
2022/07/08 02:27:33;;;;;;;8.10;1.60;;;16.40;52.00;;;;;;4980118;28;20054;-52
2022/07/08 02:30:02;;;;;;;12.43;1.83;;;16.50;52.10;;;;;;4984875;28;20418;-58
2022/07/08 02:32:30;;;;;;;8.13;1.35;;;16.50;52.20;;;;;;4983044;28;20417;-55
2022/07/08 02:34:58;;;;;;;8.75;1.60;;;16.50;52.20;;;;;;4984303;28;20062;-50
2022/07/08 02:37:26;;;;;;;5.95;1.60;;;16.60;52.10;;;;;;4982799;28;20058;-51
2022/07/08 02:39:53;;;;;;;3.42;1.30;;;16.60;52.00;;;;;;4983627;28;20054;-53
2022/07/08 02:42:21;;;;;;;7.72;1.90;;;16.60;52.00;;;;;;4983630;28;20062;-52
2022/07/08 02:44:48;;;;;;;11.05;1.55;;;16.50;51.80;;;;;;4983146;28;20080;-53
2022/07/08 02:47:17;;;;;;;10.88;1.40;;;16.50;51.80;;;;;;4981035;28;20422;-52
2022/07/08 02:49:44;;;;;;;10.02;1.60;;;16.50;51.80;;;;;;4983670;28;20058;-53
2022/07/08 02:52:13;;;;;;;4.80;1.50;;;16.50;52.00;;;;;;4984518;28;20426;-53
2022/07/08 02:54:41;;;;;;;4.70;1.40;;;16.50;52.20;;;;;;4982435;28;20050;-51
2022/07/08 02:57:08;;;;;;;7.30;1.58;;;16.40;52.20;;;;;;4981418;28;20478;-54
2022/07/08 02:59:35;;;;;;;9.60;1.75;;;16.40;52.40;;;;;;4981302;28;20062;-54
2022/07/08 03:02:03;;;;;;;10.25;1.88;;;16.40;52.50;;;;;;4983158;28;20529;-50
2022/07/08 03:04:32;;;;;;;10.23;2.20;;;16.30;52.60;;;;;;4981539;28;20054;-50
2022/07/08 03:06:59;;;;;;;8.63;1.45;;;16.30;52.50;;;;;;4982659;28;20062;-58
2022/07/08 03:09:27;;;;;;;4.32;1.40;;;16.30;52.60;;;;;;4983280;28;20059;-56
2022/07/08 03:11:54;;;;;;;11.98;1.88;;;16.20;52.60;;;;;;4984036;28;20054;-51
2022/07/08 03:14:22;;;;;;;8.27;1.63;;;16.20;52.50;;;;;;4981712;28;20055;-52
2022/07/08 03:16:49;;;;;;;4.28;1.52;;;16.20;52.60;;;;;;4980043;28;20061;-51
2022/07/08 03:19:16;;;;;;;6.30;1.40;;;16.10;52.60;;;;;;4981818;28;20058;-53
2022/07/08 03:21:45;;;;;;;5.40;1.60;;;16.10;52.70;;;;;;4983955;28;20548;-55
2022/07/08 03:24:13;;;;;;;6.65;1.88;;;16.10;52.70;;;;;;4983339;28;20058;-53
2022/07/08 03:26:40;;;;;;;13.02;2.28;;;16.00;52.70;;;;;;4980617;28;20429;-53
2022/07/08 03:29:08;;;;;;;6.72;1.42;;;16.00;52.70;;;;;;4981340;28;20061;-50
2022/07/08 03:31:35;;;;;;;12.15;1.70;;;16.00;52.90;;;;;;4982323;28;20430;-49
2022/07/08 03:34:02;;;;;;;8.05;2.28;;;16.00;53.10;;;;;;4978516;28;20058;-50
2022/07/08 03:36:30;;;;;;;5.65;1.33;;;16.00;53.10;;;;;;4978847;28;20061;-53
2022/07/08 03:38:59;;;;;;;5.28;1.80;;;15.90;53.20;;;;;;4980743;28;20050;-49
2022/07/08 03:41:26;;;;;;;7.60;1.70;;;16.00;53.30;;;;;;4980696;28;20482;-54
2022/07/08 03:43:54;;;;;;;7.00;1.52;;;15.90;53.30;;;;;;4982304;28;20054;-51
2022/07/08 03:46:22;;;;;;;11.55;2.42;;;16.00;53.50;;;;;;4979456;28;20561;-52
2022/07/08 03:48:49;;;;;;;14.43;1.90;;;15.90;53.40;;;;;;4981374;28;20494;-52
2022/07/08 03:51:18;;;;;;;8.82;1.77;;;15.90;53.50;;;;;;4979744;28;20490;-50
2022/07/08 03:53:49;;;;;;;16.08;1.95;;;15.90;53.70;;;;;;4982945;28;20055;-50
2022/07/08 03:56:18;;;;;;;9.30;1.65;;;15.90;53.80;;;;;;4981879;28;20062;-51
2022/07/08 03:58:45;;;;;;;7.63;1.83;;;15.90;53.90;;;;;;4981707;28;20058;-54
2022/07/08 04:01:13;;;;;;;9.07;1.60;;;15.90;53.90;;;;;;4981486;28;20054;-52
2022/07/08 04:03:40;;;;;;;7.25;2.08;;;15.90;54.00;;;;;;4981048;28;20065;-50
2022/07/08 04:06:08;;;;;;;9.77;1.60;;;15.90;54.20;;;;;;4981467;28;20073;-51
2022/07/08 04:08:35;;;;;;;10.05;1.70;;;15.90;54.20;;;;;;4983143;28;20059;-49
2022/07/08 04:11:03;;;;;;;10.50;1.70;;;15.90;54.40;;;;;;4982255;28;20422;-53
2022/07/08 04:13:32;;;;;;;6.15;1.35;;;15.90;54.30;;;;;;4980743;28;20081;-50
2022/07/08 04:15:59;;;;;;;23.67;3.83;;;15.90;54.40;;;;;;4981184;28;20058;-54
2022/07/08 04:18:27;;;;;;;7.50;2.08;;;15.90;54.30;;;;;;4980528;28;20050;-53
2022/07/08 04:20:54;;;;;;;10.77;2.03;;;15.90;54.40;;;;;;4981073;28;20057;-54
2022/07/08 04:23:22;;;;;;;18.08;2.78;;;16.00;54.50;;;;;;4983186;28;20414;-51
2022/07/08 04:25:49;;;;;;;7.32;2.17;;;16.00;54.60;;;;;;4978943;28;20054;-55
2022/07/08 04:28:17;;;;;;;16.67;2.50;;;15.90;54.70;;;;;;4980751;28;20062;-55
2022/07/08 04:30:46;;;;;;;12.07;2.92;;;16.00;54.60;;;;;;4979164;28;20493;-51
2022/07/08 04:33:14;;;;;;;7.10;2.03;;;16.00;54.60;;;;;;4978240;28;20510;-53
2022/07/08 04:35:41;;;;;;;10.25;2.95;;;16.00;54.40;;;;;;4978946;28;20057;-51
2022/07/08 04:38:09;;;;;;;10.40;2.17;;;16.00;54.20;;;;;;4978977;28;20054;-54
2022/07/08 04:40:36;;;;;;;7.40;2.30;;;16.00;54.30;;;;;;4980232;28;20061;-55
2022/07/08 04:43:03;;;;;;;11.82;2.10;;;16.00;54.20;;;;;;4981812;28;20058;-51
2022/07/08 04:45:31;;;;;;;6.53;2.20;;;16.00;54.40;;;;;;4980504;28;20061;-50
2022/07/08 04:48:00;;;;;;;10.07;2.33;;;16.10;54.30;;;;;;4981787;28;20425;-53
2022/07/08 04:50:28;;;;;;;6.15;2.08;;;16.10;54.40;;;;;;4982604;28;20077;-49
2022/07/08 04:52:55;;;;;;;8.75;2.38;;;16.10;54.00;;;;;;4986286;28;20510;-52
2022/07/08 04:55:29;;;;;;;8.38;2.25;;;16.10;53.80;;;;;;4980493;28;20069;-51
2022/07/08 04:57:57;;;;;;;7.03;1.98;;;16.20;53.90;;;;;;4980737;28;20437;-51
2022/07/08 05:00:25;;;;;;;9.43;1.80;;;16.30;53.80;;;;;;4984749;28;20481;-51
2022/07/08 05:02:53;;;;;;;5.70;2.40;;;16.30;54.00;;;;;;4982401;28;20062;-53
2022/07/08 05:05:22;;;;;;;10.18;2.30;;;16.40;54.20;;;;;;4983906;28;20050;-54
2022/07/08 05:07:51;;;;;;;10.90;2.42;;;16.40;53.90;;;;;;4984421;28;20422;-54
2022/07/08 05:10:21;;;;;;;6.45;2.33;;;16.50;54.00;;;;;;4986424;28;20412;-55
2022/07/08 05:12:50;;;;;;;8.23;2.53;;;16.50;54.30;;;;;;4984942;28;20061;-54
2022/07/08 05:15:17;;;;;;;8.23;2.50;;;16.50;54.00;;;;;;4984024;28;20555;-54
2022/07/08 05:17:45;;;;;;;9.32;2.95;;;16.60;53.70;;;;;;4982334;28;20509;-57
2022/07/08 05:20:13;;;;;;;8.13;2.63;;;16.60;53.50;;;;;;4987245;28;20058;-50
2022/07/08 05:22:42;;;;;;;10.40;3.10;;;16.70;53.40;;;;;;4986561;28;20065;-56
2022/07/08 05:25:10;;;;;;;13.13;3.05;;;16.70;53.50;;;;;;4985819;28;20505;-53
2022/07/08 05:27:38;;;;;;;9.35;2.90;;;16.70;53.40;;;;;;4983878;28;20065;-54
2022/07/08 05:30:08;;;;;;;10.77;2.78;;;16.80;53.30;;;;;;4984492;28;20050;-58
2022/07/08 05:32:38;;;;;;;12.10;2.65;;;16.80;53.40;;;;;;4982236;28;20501;-55
2022/07/08 05:35:06;;;;;;;11.23;2.80;;;16.90;53.60;;;;;;4983399;28;20055;-51
2022/07/08 05:37:37;;;;;;;10.75;3.17;;;16.90;53.50;;;;;;4979178;28;20053;-47
2022/07/08 05:40:08;;;;;;;9.40;3.00;;;16.90;53.40;;;;;;4982602;28;20413;-54
2022/07/08 05:42:37;;;;;;;8.27;2.58;;;16.90;53.00;;;;;;4981564;28;20054;-55
2022/07/08 05:45:05;;;;;;;17.58;3.17;;;16.90;52.70;;;;;;4985138;28;20046;-53
2022/07/08 05:47:33;;;;;;;13.40;2.70;;;16.90;52.40;;;;;;4977595;28;20761;-52
2022/07/08 05:50:02;;;;;;;7.38;2.10;;;17.00;52.50;;;;;;4985329;28;20062;-52
2022/07/08 05:52:29;;;;;;;7.55;2.83;;;17.00;52.40;;;;;;4985177;28;20070;-51
2022/07/08 05:54:57;;;;;;;10.48;3.13;;;17.00;52.30;;;;;;4982327;28;20050;-53
2022/07/08 05:57:25;;;;;;;7.97;2.63;;;17.00;52.30;;;;;;4981758;28;20053;-51
2022/07/08 05:59:53;;;;;;;8.07;2.33;;;17.00;52.20;;;;;;4981906;28;20525;-50
2022/07/08 06:02:21;;;;;;;10.70;2.92;;;17.00;52.20;;;;;;4975663;28;20410;-51
2022/07/08 06:04:48;;;;;;;8.73;2.47;;;17.10;52.30;;;;;;4983659;28;20065;-53
2022/07/08 06:07:15;;;;;;;11.80;2.88;;;17.10;52.40;;;;;;4981922;28;20057;-56
2022/07/08 06:09:43;;;;;;;10.10;2.50;;;17.10;52.10;;;;;;4985276;28;20050;-56
2022/07/08 06:12:11;;;;;;;10.27;2.22;;;17.20;52.30;;;;;;4984465;28;20050;-51
2022/07/08 06:14:40;;;;;;;8.27;2.42;;;17.20;52.10;;;;;;4983410;28;21888;-50
2022/07/08 06:17:07;;;;;;;7.80;2.33;;;17.20;52.30;;;;;;4981882;28;20399;-52
2022/07/08 06:19:35;;;;;;;11.07;2.55;;;17.20;51.60;;;;;;4980590;28;20513;-53
2022/07/08 06:22:02;;;;;;;9.45;2.95;;;17.20;51.60;;;;;;4985160;28;20054;-52
2022/07/08 06:24:30;;;;;;;6.63;2.80;;;17.20;51.70;;;;;;4982140;28;20459;-48
2022/07/08 06:26:57;;;;;;;11.23;3.85;;;17.20;51.30;;;;;;4984528;28;21161;-48
2022/07/08 06:29:25;;;;;;;16.40;3.28;;;17.20;51.00;;;;;;4982306;28;20461;-53
2022/07/08 06:31:53;;;;;;;10.52;3.40;;;17.20;51.20;;;;;;4984324;28;20074;-54
2022/07/08 06:34:21;;;;;;;8.55;3.50;;;17.20;51.50;;;;;;4982870;28;20508;-49
2022/07/08 06:36:49;;;;;;;13.38;3.92;;;17.20;51.40;;;;;;4983142;28;20047;-51
2022/07/08 06:39:16;;;;;;;10.43;3.45;;;17.20;51.40;;;;;;4984750;28;20650;-52
2022/07/08 06:41:44;;;;;;;9.70;3.30;;;17.30;51.60;;;;;;4983600;28;20065;-55
2022/07/08 06:44:11;;;;;;;9.38;3.58;;;17.30;51.60;;;;;;4985000;28;20058;-53
2022/07/08 06:46:39;;;;;;;14.65;4.07;;;17.40;51.60;;;;;;4980663;28;20512;-56
2022/07/08 06:49:08;;;;;;;14.85;5.85;;;17.50;51.80;;;;;;4984007;28;20054;-52
2022/07/08 06:51:35;;;;;;;10.63;4.93;;;17.60;51.10;;;;;;4984104;28;20050;-52
2022/07/08 06:56:48;;;;;;;14.13;6.85;;;17.60;51.00;;;;;;4980006;28;20073;-51
2022/07/08 06:59:15;;;;;;;16.50;7.38;;;17.70;50.50;;;;;;4983000;28;20054;-52
2022/07/08 07:01:42;;;;;;;15.32;8.35;;;17.80;50.80;;;;;;4980313;28;20524;-51
2022/07/08 07:04:11;;;;;;;15.20;8.10;;;17.80;50.20;;;;;;4982852;28;20058;-49
2022/07/08 07:06:39;;;;;;;13.45;7.43;;;17.70;49.80;;;;;;4982581;28;20509;-52
2022/07/08 07:09:06;;;;;;;18.15;8.27;;;17.80;50.00;;;;;;4982525;28;20057;-53
2022/07/08 07:11:35;;;;;;;22.48;8.70;;;17.80;50.00;;;;;;4980776;28;20053;-51
2022/07/08 07:14:02;;;;;;;13.52;8.45;;;17.90;49.50;;;;;;4978704;28;20058;-59
2022/07/08 07:16:30;;;;;;;17.27;7.63;;;17.90;50.10;;;;;;4979078;28;20057;-49
2022/07/08 07:18:57;;;;;;;11.98;8.02;;;18.00;49.70;;;;;;4981699;28;20054;-50
2022/07/08 07:21:26;;;;;;;17.08;8.00;;;18.00;49.30;;;;;;4980526;28;20490;-49
2022/07/08 07:23:53;;;;;;;17.55;7.78;;;18.00;48.90;;;;;;4982027;28;20054;-52
2022/07/08 07:26:21;;;;;;;17.40;8.30;;;18.00;49.00;;;;;;4981795;28;20053;-51
2022/07/08 07:28:48;;;;;;;14.95;7.25;;;18.00;49.30;;;;;;4982359;28;20411;-47
2022/07/08 07:31:16;;;;;;;12.85;7.13;;;18.10;49.80;;;;;;4981173;28;20070;-50
2022/07/08 07:33:43;;;;;;;19.27;8.85;;;18.10;48.90;;;;;;4981631;28;20061;-58
2022/07/08 07:36:11;;;;;;;22.27;12.07;;;18.20;48.70;;;;;;4980394;28;20054;-52
2022/07/08 07:38:39;;;;;;;18.58;11.63;;;18.20;49.40;;;;;;4982541;28;20486;-53
2022/07/08 07:41:07;;;;;;;19.42;11.52;;;18.10;48.70;;;;;;4983314;28;20054;-50
2022/07/08 07:43:34;;;;;;;16.70;11.23;;;18.10;48.50;;;;;;4982218;28;20069;-50
2022/07/08 07:46:02;;;;;;;17.23;10.98;;;18.20;49.00;;;;;;4980019;28;20058;-50
2022/07/08 07:48:29;;;;;;;19.70;11.13;;;18.10;49.30;;;;;;4982772;28;20073;-50
2022/07/08 07:50:57;;;;;;;24.48;12.00;;;18.10;48.80;;;;;;4982254;28;20054;-56
2022/07/08 07:53:24;;;;;;;20.08;10.73;;;18.10;48.70;;;;;;4980517;28;20046;-53
2022/07/08 07:55:53;;;;;;;18.50;9.80;;;18.10;48.70;;;;;;4978069;28;20054;-53
2022/07/08 07:58:21;;;;;;;16.88;10.35;;;18.00;48.60;;;;;;4982673;28;20065;-55
2022/07/08 08:00:49;;;;;;;16.27;9.88;;;18.10;49.00;;;;;;4981001;28;20070;-54
2022/07/08 08:03:17;;;;;;;20.85;9.98;;;18.10;49.10;;;;;;4980431;28;20061;-53
2022/07/08 08:05:44;;;;;;;15.63;9.30;;;18.10;49.20;;;;;;4973625;28;20387;-56
2022/07/08 08:08:13;;;;;;;17.73;9.15;;;18.10;49.30;;;;;;4983552;28;20050;-52
2022/07/08 08:10:41;;;;;;;17.60;8.88;;;18.20;49.20;;;;;;4982788;28;20050;-52
2022/07/08 08:13:11;;;;;;;17.42;7.72;;;18.20;49.50;;;;;;4983205;28;20050;-53
2022/07/08 08:15:38;;;;;;;14.35;8.02;;;18.30;49.10;;;;;;4979658;28;20054;-50
2022/07/08 08:18:06;;;;;;;17.52;9.23;;;18.40;49.50;;;;;;4982188;28;20065;-47
2022/07/08 08:20:34;;;;;;;14.93;7.88;;;18.50;49.30;;;;;;4981573;28;20051;-48
2022/07/08 08:23:01;;;;;;;16.90;8.85;;;18.50;48.80;;;;;;4981959;28;20430;-49
2022/07/08 08:25:29;;;;;;;16.75;8.95;;;18.60;48.50;;;;;;4982867;28;20429;-55
2022/07/08 08:27:57;;;;;;;16.02;8.68;;;18.70;48.90;;;;;;4986823;28;20054;-50
2022/07/08 08:30:26;;;;;;;22.80;11.27;;;18.70;48.90;;;;;;4982739;28;20058;-49
2022/07/08 08:32:54;;;;;;;15.90;8.07;;;18.80;48.80;;;;;;4985367;28;20074;-53
2022/07/08 08:38:44;;;;;;;16.60;8.00;;;19.00;49.30;;;;;;4998093;28;20057;-53
2022/07/08 08:41:12;;;;;;;12.30;8.25;;;19.10;48.50;;;;;;4985292;28;20054;-48
2022/07/08 08:43:39;;;;;;;20.08;8.88;;;19.20;48.30;;;;;;4985340;28;20046;-51
2022/07/08 08:46:11;;;;;;;22.38;8.63;;;19.30;48.50;;;;;;4983628;28;20502;-49
2022/07/08 08:48:40;;;;;;;25.63;8.88;;;19.30;47.80;;;;;;4986936;28;20050;-51
2022/07/08 08:51:08;;;;;;;16.55;8.52;;;19.30;48.80;;;;;;4984103;28;20070;-49
2022/07/08 08:53:40;;;;;;;16.60;6.95;;;19.20;48.70;;;;;;4986065;28;20430;-51
2022/07/08 08:56:10;;;;;;;18.73;6.55;;;19.30;49.40;;;;;;4982181;28;20054;-52
2022/07/08 08:58:39;;;;;;;12.90;7.28;;;19.20;49.30;;;;;;4984529;28;20050;-54
2022/07/08 09:01:09;;;;;;;20.63;7.03;;;19.30;49.90;;;;;;4984328;28;20061;-60
2022/07/08 09:03:37;;;;;;;19.02;7.88;;;19.40;50.40;;;;;;4985996;28;20384;-54
2022/07/08 09:06:05;;;;;;;18.70;6.90;;;19.40;49.50;;;;;;4983929;28;20065;-57
2022/07/08 09:08:33;;;;;;;16.60;9.35;;;19.40;49.80;;;;;;4985418;28;20093;-50
2022/07/08 09:11:01;;;;;;;16.00;8.00;;;19.40;49.20;;;;;;4986592;28;20066;-54
2022/07/08 09:13:28;;;;;;;11.48;6.65;;;19.40;48.40;;;;;;4985543;28;20482;-58
2022/07/08 09:15:58;;;;;;;18.00;7.50;;;19.50;48.80;;;;;;4984016;28;20061;-60
2022/07/08 09:18:30;;;;;;;15.18;7.40;;;19.50;48.40;;;;;;4985387;28;20050;-52
2022/07/08 09:20:58;;;;;;;21.90;7.57;;;19.50;47.90;;;;;;4986124;28;20061;-58
2022/07/08 09:23:28;;;;;;;11.38;6.95;;;19.50;48.90;;;;;;4985170;28;20073;-54
2022/07/08 09:25:57;;;;;;;18.55;9.07;;;19.60;49.40;;;;;;4983814;28;20061;-55
2022/07/08 09:28:32;;;;;;;9.98;6.43;;;19.70;48.40;;;;;;4985042;28;20055;-52
2022/07/08 09:31:01;;;;;;;14.40;6.75;;;19.70;47.70;;;;;;4984357;28;20050;-49
2022/07/08 09:33:31;;;;;;;20.45;7.30;;;19.70;47.10;;;;;;4984454;28;20054;-47
2022/07/08 09:36:00;;;;;;;18.70;7.43;;;19.80;47.50;;;;;;4983836;28;20078;-51
2022/07/08 09:38:29;;;;;;;13.52;6.50;;;19.80;48.30;;;;;;4984481;28;20050;-53
2022/07/08 09:40:57;;;;;;;12.77;6.10;;;19.80;47.20;;;;;;4985194;28;20054;-50
2022/07/08 09:43:26;;;;;;;10.10;5.45;;;19.90;47.50;;;;;;4983884;28;20050;-55
2022/07/08 09:45:53;;;;;;;13.25;5.95;;;20.00;46.80;;;;;;4983169;28;20069;-51
2022/07/08 09:48:24;;;;;;;14.75;5.35;;;20.00;45.90;;;;;;4984229;28;20050;-54
2022/07/08 09:50:53;;;;;;;10.98;4.55;;;20.00;45.70;;;;;;4984726;28;20062;-53
2022/07/08 09:53:22;;;;;;;10.27;5.00;;;20.00;46.10;;;;;;4984405;28;20498;-49
2022/07/08 09:55:52;;;;;;;14.20;5.07;;;20.10;47.00;;;;;;4981621;28;20065;-52
2022/07/08 09:58:21;;;;;;;13.90;5.55;;;20.10;47.60;;;;;;4983437;28;20046;-48
2022/07/08 10:00:50;;;;;;;13.60;4.80;;;20.10;47.10;;;;;;4984884;28;20061;-50
2022/07/08 10:03:18;;;;;;;12.55;4.47;;;20.20;47.40;;;;;;4983862;28;20525;-50
2022/07/08 10:05:46;;;;;;;12.00;4.88;;;20.30;48.10;;;;;;4983883;28;20061;-53
2022/07/08 10:08:16;;;;;;;19.65;4.35;;;20.30;47.90;;;;;;4984973;28;20050;-51
2022/07/08 10:10:45;;;;;;;12.45;4.97;;;20.40;47.50;;;;;;4984098;28;20456;-56
2022/07/08 10:13:15;;;;;;;9.93;4.43;;;20.40;46.90;;;;;;4983962;28;20057;-57
2022/07/08 10:15:44;;;;;;;13.02;4.78;;;20.50;47.30;;;;;;4982265;28;20513;-49
2022/07/08 10:18:16;;;;;;;9.38;4.47;;;20.50;46.60;;;;;;4985628;28;20072;-52
2022/07/08 10:20:48;;;;;;;14.55;5.07;;;20.50;46.70;;;;;;4986022;28;20522;-50
2022/07/08 10:23:22;;;;;;;12.18;4.50;;;20.50;46.30;;;;;;4982917;28;20050;-53
2022/07/08 10:25:51;;;;;;;11.07;4.53;;;20.60;47.30;;;;;;4982636;28;20069;-48
2022/07/08 10:28:19;;;;;;;10.80;4.90;;;20.60;47.80;;;;;;4984274;28;20062;-52
2022/07/08 10:30:53;;;;;;;10.90;4.90;;;20.70;46.00;;;;;;4983092;28;20058;-53
2022/07/08 10:33:29;;;;;;;;;;;20.70;44.90;;;;;;4984334;28;20509;-51
2022/07/08 10:36:08;;;;;;;8.82;4.00;;;20.80;46.00;;;;;;4982705;28;20281;-55
2022/07/08 10:38:38;;;;;;;9.80;4.28;;;20.80;46.00;;;;;;4983593;28;20058;-50
2022/07/08 10:41:08;;;;;;;12.00;4.07;;;20.90;45.30;;;;;;4984423;28;20065;-52
2022/07/08 10:43:36;;;;;;;12.02;4.20;;;20.80;44.70;;;;;;4982464;28;20406;-50
2022/07/08 10:46:10;;;;;;;6.38;3.13;;;20.80;45.50;;;;;;4982072;28;20414;-56
2022/07/08 10:48:47;;;;;;;;;;;20.90;46.10;;;;;;4981612;28;20054;-57
2022/07/08 10:51:56;;;;;;;9.73;4.65;;;21.00;46.40;;;;;;4983077;28;20388;-51
2022/07/08 10:54:36;;;;;;;7.55;2.85;;;21.00;45.60;;;;;;4979678;28;21078;-54
2022/07/08 10:57:09;;;;;;;9.43;3.53;;;21.10;46.20;;;;;;4980326;28;20050;-49
2022/07/08 10:59:38;;;;;;;8.98;4.03;;;21.10;45.70;;;;;;4980564;28;20053;-50
2022/07/08 11:02:08;;;;;;;6.75;3.55;;;21.10;44.70;;;;;;4981592;28;20054;-56
2022/07/08 11:04:46;;;;;;;8.05;3.75;;;21.10;45.00;;;;;;4982065;28;20054;-56
2022/07/08 11:07:26;;;;;;;10.40;3.83;;;21.20;45.00;;;;;;4981903;28;20050;-55
2022/07/08 11:09:57;;;;;;;8.90;3.53;;;21.20;45.10;;;;;;4983383;28;20054;-56
2022/07/08 11:12:26;;;;;;;12.25;3.72;;;21.30;44.80;;;;;;4982264;28;20061;-49
2022/07/08 11:14:55;;;;;;;9.93;3.53;;;21.30;45.10;;;;;;4982165;28;20057;-53
2022/07/08 11:17:23;;;;;;;11.57;3.33;;;21.30;46.10;;;;;;4982060;28;20058;-57
2022/07/08 11:19:52;;;;;;;6.25;2.80;;;21.30;45.00;;;;;;4982718;28;20050;-57
2022/07/08 11:22:20;;;;;;;19.38;3.40;;;21.40;45.20;;;;;;4982237;28;20088;-53
2022/07/08 11:24:49;;;;;;;13.27;3.38;;;21.50;44.90;;;;;;4983049;28;20058;-56
2022/07/08 11:27:24;;;;;;;18.00;4.03;;;21.50;44.70;;;;;;4982503;28;20061;-57
2022/07/08 11:29:52;;;;;;;8.95;3.13;;;21.50;45.20;;;;;;4982064;28;20051;-57
2022/07/08 11:32:22;;;;;;;8.55;2.90;;;21.50;44.90;;;;;;4982732;28;20417;-55
2022/07/08 11:34:50;;;;;;;7.30;2.72;;;21.50;45.10;;;;;;4981861;28;20517;-53
2022/07/08 11:37:19;;;;;;;7.15;2.55;;;21.50;44.50;;;;;;4981849;28;20058;-53
2022/07/08 11:39:47;;;;;;;9.57;2.65;;;21.60;44.30;;;;;;4983461;28;20506;-52
2022/07/08 11:42:16;;;;;;;7.47;2.30;;;21.70;44.40;;;;;;4983160;28;20054;-54
2022/07/08 11:44:45;;;;;;;7.82;2.40;;;21.70;44.90;;;;;;4982666;28;20050;-59
2022/07/08 11:47:17;;;;;;;7.45;1.83;;;21.80;45.20;;;;;;4981281;28;20069;-52
2022/07/08 11:49:45;;;;;;;13.82;2.80;;;21.90;45.40;;;;;;4982568;28;20061;-53
2022/07/08 11:52:16;;;;;;;7.68;2.17;;;21.90;44.00;;;;;;4983113;28;20062;-56
2022/07/08 11:54:46;;;;;;;9.10;2.85;;;21.90;44.40;;;;;;4982050;28;20498;-58
2022/07/08 11:57:14;;;;;;;10.18;2.60;;;22.00;43.90;;;;;;4981232;28;20050;-52
2022/07/08 11:59:45;;;;;;;6.80;1.85;;;22.00;44.80;;;;;;4982118;28;20051;-50
2022/07/08 12:02:15;;;;;;;5.68;2.30;;;22.10;44.40;;;;;;4982346;28;20065;-54
2022/07/08 12:04:46;;;;;;;5.43;2.20;;;22.20;45.10;;;;;;4979928;28;20069;-49
2022/07/08 12:07:21;;;;;;;8.63;2.63;;;22.20;44.70;;;;;;4981957;28;20096;-53
2022/07/08 12:09:57;;;;;;;6.65;2.40;;;22.30;43.80;;;;;;4982428;28;20647;-56
2022/07/08 12:12:25;;;;;;;6.50;2.30;;;22.40;44.70;;;;;;4982859;28;20050;-54
2022/07/08 12:14:54;;;;;;;7.78;2.70;;;22.50;44.70;;;;;;4981456;28;20058;-54
2022/07/08 12:17:27;;;;;;;13.35;3.25;;;22.50;44.00;;;;;;4980842;28;20073;-49
2022/07/08 12:19:54;;;;;;;6.82;2.35;;;22.60;44.20;;;;;;4982674;28;20529;-50
2022/07/08 12:22:45;;;;;;;9.90;2.88;;;22.70;44.80;;;;;;4982731;28;20410;-48
2022/07/08 12:25:12;;;;;;;5.63;2.58;;;22.80;43.90;;;;;;4982980;28;20434;-56
2022/07/08 12:27:40;;;;;;;4.97;2.25;;;22.80;43.50;;;;;;4981800;28;20517;-58
2022/07/08 12:30:10;;;;;;;5.78;2.35;;;22.90;43.00;;;;;;4982405;28;20051;-57
2022/07/08 12:32:38;;;;;;;8.38;2.45;;;22.90;42.80;;;;;;4980433;28;20050;-48
2022/07/08 12:35:07;;;;;;;7.60;2.60;;;23.00;43.40;;;;;;4982418;28;20058;-56
2022/07/08 12:37:34;;;;;;;13.00;3.90;;;23.00;43.30;;;;;;4981987;28;20054;-56
2022/07/08 12:40:16;;;;;;;7.20;2.42;;;23.10;43.50;;;;;;4983030;28;20065;-54
2022/07/08 12:42:44;;;;;;;7.13;2.50;;;23.20;43.70;;;;;;4983378;28;20054;-52
2022/07/08 12:45:17;;;;;;;8.15;2.47;;;23.30;44.10;;;;;;4983062;28;20395;-57
2022/07/08 12:47:44;;;;;;;11.00;3.28;;;23.30;43.00;;;;;;4980096;28;20058;-56
2022/07/08 12:50:12;;;;;;;9.65;2.58;;;23.50;42.90;;;;;;4983190;28;20051;-49
2022/07/08 12:52:39;;;;;;;8.82;2.47;;;23.50;42.30;;;;;;4983445;28;20050;-50
2022/07/08 12:55:08;;;;;;;12.60;2.80;;;23.60;42.00;;;;;;4981590;28;20522;-51